Time,TemperatureF,DewpointF,PressureIn,WindDirection,WindDirectionDegrees,WindSpeedMPH,WindSpeedGustMPH,Humidity,HourlyPrecipIn,Conditions,Clouds,dailyrainin,SoftwareType,DateUTC
2017-07-28 00:10:00,69.0,65.3,29.90,WSW,241,7.0,9.0,88,0.00,CLR,,0.00,WeatherDisplay:10.37,2017-07-27 22:10:00,
2017-07-28 00:20:00,69.0,65.3,29.90,WSW,246,6.0,9.0,88,0.00,CLR,,0.00,WeatherDisplay:10.37,2017-07-27 22:20:00,
2017-07-28 00:30:00,69.1,65.1,29.90,WSW,237,6.0,10.0,87,0.00,CLR,,0.00,WeatherDisplay:10.37,2017-07-27 22:30:00,
2017-07-28 00:40:00,69.2,65.1,29.90,SW,232,6.0,9.0,87,0.00,CLR,,0.00,WeatherDisplay:10.37,2017-07-27 22:40:00,
2017-07-28 00:50:00,69.2,65.2,29.90,WSW,237,7.0,10.0,87,0.00,CLR,,0.00,WeatherDisplay:10.37,2017-07-27 22:50:00,
2017-07-28 01:00:00,69.3,65.3,29.90,WSW,241,6.0,8.0,87,0.00,CLR,,0.00,WeatherDisplay:10.37,2017-07-27 23:00:00,
2017-07-28 01:10:00,69.2,65.2,29.90,WSW,239,8.0,12.0,87,0.00,CLR,,0.00,WeatherDisplay:10.37,2017-07-27 23:10:00,
2017-07-28 01:20:00,69.2,65.2,29.90,SW,232,7.0,12.0,87,0.00,CLR,,0.00,WeatherDisplay:10.37,2017-07-27 23:20:00,
2017-07-28 01:30:00,69.2,65.2,29.90,SW,235,6.0,12.0,87,0.00,CLR,,0.00,WeatherDisplay:10.37,2017-07-27 23:30:00,
2017-07-28 01:40:00,69.3,65.2,29.90,WSW,241,7.0,12.0,87,0.00,CLR,,0.00,WeatherDisplay:10.37,2017-07-27 23:40:00,
2017-07-28 01:50:00,69.2,65.2,29.90,WSW,240,5.0,9.0,87,0.00,CLR,,0.00,WeatherDisplay:10.37,2017-07-27 23:50:00,
2017-07-28 02:00:00,69.2,65.5,29.90,WSW,240,6.0,10.0,88,0.00,CLR,,0.00,WeatherDisplay:10.37,2017-07-28 00:00:00,
2017-07-28 02:10:00,69.2,65.5,29.90,WSW,237,3.0,9.0,88,0.00,CLR,,0.00,WeatherDisplay:10.37,2017-07-28 00:10:00,
2017-07-28 02:20:00,69.2,65.5,29.90,WSW,250,8.0,12.0,88,0.00,CLR,,0.00,WeatherDisplay:10.37,2017-07-28 00:20:00,
2017-07-28 02:30:00,69.1,65.4,29.91,WSW,237,6.0,10.0,88,0.00,CLR,,0.00,WeatherDisplay:10.37,2017-07-28 00:30:00,
2017-07-28 02:40:00,69.1,65.4,29.91,WSW,247,5.0,12.0,88,0.00,CLR,,0.00,WeatherDisplay:10.37,2017-07-28 00:40:00,
2017-07-28 02:50:00,68.9,65.2,29.90,WSW,242,6.0,10.0,88,0.00,CLR,,0.00,WeatherDisplay:10.37,2017-07-28 00:50:00,
2017-07-28 03:00:00,68.8,65.1,29.91,WSW,238,6.0,10.0,88,0.00,CLR,,0.00,WeatherDisplay:10.37,2017-07-28 01:00:00,
2017-07-28 03:10:00,68.8,65.1,29.91,WSW,253,3.0,9.0,88,0.00,CLR,,0.00,WeatherDisplay:10.37,2017-07-28 01:10:00,
2017-07-28 03:20:00,68.9,64.8,29.91,WSW,244,7.0,10.0,87,0.00,CLR,,0.00,WeatherDisplay:10.37,2017-07-28 01:20:00,
2017-07-28 03:30:00,69.0,65.0,29.91,WSW,253,6.0,12.0,87,0.00,CLR,,0.00,WeatherDisplay:10.37,2017-07-28 01:30:00,
2017-07-28 03:40:00,68.9,64.9,29.91,WSW,250,7.0,12.0,87,0.00,CLR,,0.00,WeatherDisplay:10.37,2017-07-28 01:40:00,
2017-07-28 03:50:00,68.9,65.2,29.91,WSW,249,6.0,12.0,88,0.00,CLR,,0.00,WeatherDisplay:10.37,2017-07-28 01:50:00,
2017-07-28 04:00:00,68.9,65.2,29.91,WSW,253,7.0,10.0,88,0.00,CLR,,0.00,WeatherDisplay:10.37,2017-07-28 02:00:00,
2017-07-28 04:10:00,68.7,65.0,29.90,WSW,255,6.0,12.0,88,0.00,CLR,,0.00,WeatherDisplay:10.37,2017-07-28 02:10:00,
2017-07-28 04:20:00,68.6,64.9,29.90,WSW,249,7.0,12.0,88,0.00,CLR,,0.00,WeatherDisplay:10.37,2017-07-28 02:20:00,
2017-07-28 04:30:00,68.5,64.8,29.90,WSW,244,7.0,12.0,88,0.00,CLR,,0.00,WeatherDisplay:10.37,2017-07-28 02:30:00,
2017-07-28 04:40:00,68.1,64.8,29.91,WSW,245,6.0,12.0,89,0.00,CLR,,0.00,WeatherDisplay:10.37,2017-07-28 02:40:00,
2017-07-28 04:50:00,68.1,64.4,29.91,WSW,245,5.0,9.0,88,0.00,CLR,,0.00,WeatherDisplay:10.37,2017-07-28 02:50:00,
2017-07-28 05:00:00,68.0,64.3,29.91,WSW,252,3.0,12.0,88,0.00,CLR,,0.00,WeatherDisplay:10.37,2017-07-28 03:00:00,
2017-07-28 05:10:00,67.9,64.2,29.91,WSW,256,7.0,12.0,88,0.00,CLR,,0.00,WeatherDisplay:10.37,2017-07-28 03:10:00,
2017-07-28 05:20:00,67.9,64.2,29.91,West,266,6.0,12.0,88,0.00,CLR,,0.00,WeatherDisplay:10.37,2017-07-28 03:20:00,
2017-07-28 05:30:00,67.8,64.1,29.91,West,265,5.0,9.0,88,0.00,CLR,,0.00,WeatherDisplay:10.37,2017-07-28 03:30:00,
2017-07-28 05:40:00,67.7,64.0,29.92,WSW,253,2.0,8.0,88,0.00,CLR,,0.00,WeatherDisplay:10.37,2017-07-28 03:40:00,
2017-07-28 05:50:00,67.6,63.9,29.92,West,266,5.0,8.0,88,0.00,CLR,,0.00,WeatherDisplay:10.37,2017-07-28 03:50:00,
2017-07-28 06:00:00,67.7,64.0,29.92,West,270,5.0,12.0,88,0.00,CLR,,0.00,WeatherDisplay:10.37,2017-07-28 04:00:00,
2017-07-28 06:10:00,67.6,63.9,29.92,West,264,5.0,8.0,88,0.00,CLR,,0.00,WeatherDisplay:10.37,2017-07-28 04:10:00,
2017-07-28 06:20:00,67.5,64.1,29.92,WSW,247,5.0,7.0,89,0.00,CLR,,0.00,WeatherDisplay:10.37,2017-07-28 04:20:00,
2017-07-28 06:30:00,67.4,64.0,29.92,SW,232,7.0,7.0,89,0.00,CLR,,0.00,WeatherDisplay:10.37,2017-07-28 04:30:00,
2017-07-28 06:40:00,67.4,64.0,29.92,SW,236,6.0,10.0,89,0.00,CLR,,0.00,WeatherDisplay:10.37,2017-07-28 04:40:00,
2017-07-28 06:50:00,67.7,64.3,29.92,WSW,240,6.0,9.0,89,0.00,CLR,,0.00,WeatherDisplay:10.37,2017-07-28 04:50:00,
2017-07-28 07:00:00,67.8,64.1,29.92,WSW,244,6.0,10.0,88,0.00,CLR,,0.00,WeatherDisplay:10.37,2017-07-28 05:00:00,
2017-07-28 07:10:00,68.1,64.4,29.93,SW,236,6.0,10.0,88,0.00,CLR,,0.00,WeatherDisplay:10.37,2017-07-28 05:10:00,
2017-07-28 07:20:00,68.4,64.7,29.93,SW,231,7.0,12.0,88,0.00,CLR,,0.00,WeatherDisplay:10.37,2017-07-28 05:20:00,
2017-07-28 07:30:00,68.8,65.1,29.93,SW,236,3.0,12.0,88,0.00,CLR,,0.00,WeatherDisplay:10.37,2017-07-28 05:30:00,
2017-07-28 07:40:00,69.0,65.0,29.94,West,259,6.0,9.0,87,0.00,CLR,,0.00,WeatherDisplay:10.37,2017-07-28 05:40:00,
2017-07-28 07:50:00,69.1,65.1,29.94,WSW,256,5.0,9.0,87,0.00,CLR,,0.00,WeatherDisplay:10.37,2017-07-28 05:50:00,
2017-07-28 08:00:00,69.3,64.9,29.94,West,266,3.0,7.0,86,0.00,CLR,,0.00,WeatherDisplay:10.37,2017-07-28 06:00:00,
2017-07-28 08:10:00,69.6,65.2,29.94,West,269,0.0,4.0,86,0.00,CLR,,0.00,WeatherDisplay:10.37,2017-07-28 06:10:00,
2017-07-28 08:20:00,69.9,65.6,29.95,West,271,5.0,7.0,86,0.00,CLR,,0.00,WeatherDisplay:10.37,2017-07-28 06:20:00,
2017-07-28 08:30:00,70.4,66.0,29.95,WNW,284,7.0,9.0,86,0.00,CLR,,0.00,WeatherDisplay:10.37,2017-07-28 06:30:00,